createdAt,value
2022-11-15T00:00:01.948Z,98.50
2022-11-15T00:02:21.569Z,98.40
2022-11-15T00:04:40.888Z,98.70
2022-11-15T00:07:00.766Z,98.50
2022-11-15T00:09:19.981Z,98.70
2022-11-15T00:11:39.552Z,98.80
2022-11-15T00:14:04.352Z,98.80
2022-11-15T00:16:23.767Z,98.70
2022-11-15T00:18:47.765Z,99.20
2022-11-15T00:21:11.819Z,99.00
2022-11-15T00:23:31.484Z,99.10
2022-11-15T00:25:51.170Z,99.40
2022-11-15T00:28:10.536Z,99.50
2022-11-15T00:30:32.567Z,99.70
2022-11-15T00:32:51.879Z,99.70
2022-11-15T00:35:12.220Z,99.50
2022-11-15T00:37:31.538Z,99.00
2022-11-15T00:39:51.005Z,99.00
2022-11-15T00:42:10.270Z,98.70
2022-11-15T00:44:29.691Z,98.50
2022-11-15T00:46:50.644Z,98.00
2022-11-15T00:49:10.117Z,97.60
2022-11-15T00:51:29.329Z,97.00
2022-11-15T00:53:48.881Z,96.80
2022-11-15T00:56:08.472Z,96.10
2022-11-15T00:58:27.992Z,94.80
2022-11-15T01:00:49.378Z,93.20
2022-11-15T01:03:10.873Z,92.50
2022-11-15T01:05:30.291Z,92.60
2022-11-15T01:07:49.966Z,91.20
2022-11-15T01:10:10.357Z,91.10
2022-11-15T01:12:29.981Z,89.10
2022-11-15T01:14:49.400Z,88.50
2022-11-15T01:17:09.021Z,88.00
2022-11-15T01:19:30.130Z,87.40
2022-11-15T01:21:49.600Z,87.50
2022-11-15T01:24:09.479Z,87.40
2022-11-15T01:26:29.665Z,86.80
2022-11-15T01:28:49.033Z,86.50
2022-11-15T01:31:10.552Z,86.50
2022-11-15T01:33:30.001Z,85.80
2022-11-15T01:35:51.488Z,85.10
2022-11-15T01:38:10.701Z,84.90
2022-11-15T01:40:30.223Z,84.30
2022-11-15T01:42:49.431Z,83.20
2022-11-15T01:45:10.031Z,83.30
2022-11-15T01:47:32.423Z,83.10
2022-11-15T01:49:58.290Z,83.00
2022-11-15T01:52:23.287Z,82.50
2022-11-15T01:54:42.962Z,82.80
2022-11-15T01:57:08.525Z,81.80
2022-11-15T01:59:28.506Z,82.10
2022-11-15T02:01:48.490Z,82.10
2022-11-15T02:04:14.358Z,81.70
2022-11-15T02:06:33.624Z,81.40
2022-11-15T02:08:55.203Z,81.30
2022-11-15T02:11:14.613Z,80.80
2022-11-15T02:13:34.411Z,80.40
2022-11-15T02:16:03.555Z,80.00
2022-11-15T02:18:30.837Z,80.70
2022-11-15T02:21:15.293Z,80.70
2022-11-15T02:24:05.020Z,80.40
2022-11-15T02:27:01.407Z,79.70
2022-11-15T02:29:32.653Z,79.60
2022-11-15T02:31:59.907Z,78.40
2022-11-15T02:34:29.462Z,79.00
2022-11-15T02:36:54.262Z,78.50
2022-11-15T02:39:20.740Z,78.30
2022-11-15T02:41:50.656Z,78.00
2022-11-15T02:44:15.350Z,77.30
2022-11-15T02:46:57.140Z,77.00
2022-11-15T02:49:19.680Z,76.90
2022-11-15T02:51:39.099Z,76.10
2022-11-15T02:53:58.313Z,76.20
2022-11-15T02:56:17.732Z,75.50
2022-11-15T02:59:15.398Z,75.40
2022-11-15T03:01:48.793Z,75.40
2022-11-15T03:04:17.431Z,74.70
2022-11-15T03:06:43.655Z,74.70
2022-11-15T03:09:11.679Z,74.50
2022-11-15T03:11:32.208Z,73.50
2022-11-15T03:13:57.669Z,74.00
2022-11-15T03:16:22.117Z,73.40
2022-11-15T03:18:45.118Z,73.40
2022-11-15T03:21:08.583Z,73.60
2022-11-15T03:23:31.009Z,73.50
2022-11-15T03:25:53.156Z,72.90
2022-11-15T03:28:16.932Z,72.90
2022-11-15T03:30:38.698Z,71.90
2022-11-15T03:32:59.296Z,72.20
2022-11-15T03:35:21.631Z,71.40
2022-11-15T03:37:44.941Z,71.50
2022-11-15T03:40:07.584Z,72.10
2022-11-15T03:42:33.919Z,72.10
2022-11-15T03:44:59.854Z,71.90
2022-11-15T03:47:24.580Z,71.30
2022-11-15T03:49:48.457Z,69.40
2022-11-15T03:52:08.948Z,69.10
2022-11-15T03:54:28.832Z,68.40
2022-11-15T03:56:49.781Z,69.30
2022-11-15T03:59:09.507Z,69.70
2022-11-15T04:01:28.829Z,69.30
2022-11-15T04:03:48.345Z,68.70
2022-11-15T04:06:07.661Z,68.60
2022-11-15T04:08:27.130Z,68.20
2022-11-15T04:10:46.395Z,68.00
2022-11-15T04:13:07.964Z,67.70
2022-11-15T04:15:28.098Z,66.80
2022-11-15T04:17:50.180Z,66.40
2022-11-15T04:20:25.266Z,66.10
2022-11-15T04:23:01.170Z,64.80
2022-11-15T04:25:23.220Z,66.30
2022-11-15T04:27:43.956Z,66.00
2022-11-15T04:30:05.521Z,65.10
2022-11-15T04:32:24.784Z,66.10
2022-11-15T04:34:44.310Z,66.20
2022-11-15T04:37:14.679Z,66.20
2022-11-15T04:39:34.150Z,65.80
2022-11-15T04:41:53.415Z,65.40
2022-11-15T04:44:13.396Z,65.80
2022-11-15T04:46:34.607Z,65.60
2022-11-15T04:48:58.316Z,65.30
2022-11-15T04:51:18.360Z,65.50
2022-11-15T04:53:38.084Z,64.60
2022-11-15T04:55:57.402Z,64.90
2022-11-15T04:58:17.126Z,64.90
2022-11-15T05:00:36.546Z,63.80
2022-11-15T05:03:14.703Z,63.60
2022-11-15T05:05:34.121Z,62.90
2022-11-15T05:07:53.694Z,63.20
2022-11-15T05:10:13.931Z,63.40
2022-11-15T05:12:33.144Z,63.30
2022-11-15T05:14:52.614Z,63.20
2022-11-15T05:17:12.032Z,63.30
2022-11-15T05:19:33.346Z,62.70
2022-11-15T05:21:52.970Z,63.00
2022-11-15T05:24:15.513Z,63.40
2022-11-15T05:26:35.035Z,63.10
2022-11-15T05:28:58.137Z,63.30
2022-11-15T05:31:19.602Z,63.00
2022-11-15T05:33:38.715Z,63.20
2022-11-15T05:36:03.668Z,62.70
2022-11-15T05:38:23.490Z,63.20
2022-11-15T05:40:42.909Z,62.40
2022-11-15T05:43:04.682Z,63.20
2022-11-15T05:45:27.072Z,63.30
2022-11-15T05:47:48.024Z,62.90
2022-11-15T05:50:08.469Z,62.50
2022-11-15T05:52:34.441Z,62.10
2022-11-15T05:54:54.369Z,60.50
2022-11-15T05:57:14.047Z,60.10
2022-11-15T05:59:35.101Z,60.80
2022-11-15T06:01:54.694Z,61.70
2022-11-15T06:04:14.247Z,62.90
2022-11-15T06:06:33.515Z,63.80
2022-11-15T06:08:54.727Z,63.40
2022-11-15T06:11:14.243Z,62.70
2022-11-15T06:13:34.127Z,62.30
2022-11-15T06:15:53.745Z,62.40
2022-11-15T06:18:13.216Z,62.50
2022-11-15T06:20:33.710Z,62.70
2022-11-15T06:22:53.076Z,61.60
2022-11-15T06:25:14.287Z,60.70
2022-11-15T06:27:33.552Z,61.30
2022-11-15T06:29:53.431Z,61.00
2022-11-15T06:32:12.797Z,61.30
2022-11-15T06:34:32.269Z,61.20
2022-11-15T06:36:51.430Z,61.00
2022-11-15T06:39:11.155Z,61.40
2022-11-15T06:41:32.213Z,61.50
2022-11-15T06:43:51.531Z,61.90
2022-11-15T06:46:11.307Z,61.50
2022-11-15T06:48:31.555Z,61.30
2022-11-15T06:50:56.136Z,60.70
2022-11-15T06:53:15.555Z,60.40
2022-11-15T06:55:34.766Z,60.90
2022-11-15T06:57:56.746Z,61.00
2022-11-15T07:00:15.701Z,60.10
2022-11-15T07:02:35.325Z,58.60
2022-11-15T07:04:54.592Z,59.30
2022-11-15T07:07:14.878Z,60.80
2022-11-15T07:09:34.197Z,60.50
2022-11-15T07:11:53.768Z,59.70
2022-11-15T07:14:15.080Z,60.10
2022-11-15T07:16:34.652Z,59.90
2022-11-15T07:18:53.866Z,59.80
2022-11-15T07:21:14.719Z,59.90
2022-11-15T07:23:34.210Z,60.10
2022-11-15T07:25:53.915Z,60.30
2022-11-15T07:28:13.947Z,60.10
2022-11-15T07:30:35.571Z,60.00
2022-11-15T07:32:58.570Z,59.90
2022-11-15T07:35:18.194Z,59.20
2022-11-15T07:37:37.663Z,60.00
2022-11-15T07:39:56.927Z,60.10
2022-11-15T07:42:32.575Z,59.80
2022-11-15T07:44:51.789Z,58.90
2022-11-15T07:47:12.641Z,59.60
2022-11-15T07:49:31.959Z,59.70
2022-11-15T07:51:51.274Z,59.70
2022-11-15T07:54:10.899Z,60.00
2022-11-15T07:56:30.305Z,60.20
2022-11-15T07:58:52.294Z,60.60
2022-11-15T08:01:12.809Z,61.40
2022-11-15T08:03:34.507Z,61.80
2022-11-15T08:05:56.130Z,62.20
2022-11-15T08:08:16.214Z,62.90
2022-11-15T08:10:40.461Z,63.70
2022-11-15T08:13:04.676Z,64.20
2022-11-15T08:15:23.636Z,64.20
2022-11-15T08:17:43.056Z,64.10
2022-11-15T08:20:05.441Z,64.00
2022-11-15T08:22:26.294Z,63.40
2022-11-15T08:24:45.561Z,63.40
2022-11-15T08:27:05.151Z,63.60
2022-11-15T08:29:24.804Z,62.20
2022-11-15T08:31:44.532Z,62.10
2022-11-15T08:34:04.294Z,62.00
2022-11-15T08:36:25.711Z,62.10
2022-11-15T08:38:44.937Z,61.90
2022-11-15T08:41:08.144Z,62.20
2022-11-15T08:43:27.564Z,61.90
2022-11-15T08:45:47.085Z,61.60
2022-11-15T08:48:08.146Z,62.00
2022-11-15T08:50:27.609Z,62.20
2022-11-15T08:52:50.152Z,62.00
2022-11-15T08:55:10.237Z,62.10
2022-11-15T08:57:32.983Z,61.90
2022-11-15T08:59:52.504Z,61.90
2022-11-15T09:02:15.867Z,62.20
2022-11-15T09:04:35.538Z,62.60
2022-11-15T09:06:55.199Z,63.20
2022-11-15T09:09:16.218Z,63.50
2022-11-15T09:11:35.739Z,62.50
2022-11-15T09:13:55.005Z,61.80
2022-11-15T09:16:15.037Z,62.20
2022-11-15T09:18:34.614Z,62.00
2022-11-15T09:20:54.438Z,62.40
2022-11-15T09:23:13.804Z,63.30
2022-11-15T09:25:35.936Z,63.00
2022-11-15T09:27:55.293Z,63.20
2022-11-15T09:30:15.798Z,63.30
2022-11-15T09:32:38.966Z,63.00
2022-11-15T09:34:58.986Z,63.20
2022-11-15T09:37:18.405Z,63.00
2022-11-15T09:39:38.490Z,62.80
2022-11-15T09:42:22.433Z,63.20
2022-11-15T09:45:01.204Z,63.60
2022-11-15T09:47:48.426Z,64.30
2022-11-15T09:50:14.346Z,64.60
2022-11-15T09:52:23.628Z,64.80
2022-11-15T09:57:16.343Z,65.10
2022-11-15T09:59:34.226Z,65.30
2022-11-15T10:01:49.314Z,65.50
2022-11-15T10:04:01.127Z,65.90
2022-11-15T10:06:10.665Z,66.40
2022-11-15T10:08:38.225Z,66.90
2022-11-15T10:10:48.944Z,67.20
2022-11-15T10:12:58.526Z,67.40
2022-11-15T10:15:09.907Z,67.20
2022-11-15T10:17:42.074Z,66.90
2022-11-15T10:20:05.025Z,66.60
2022-11-15T10:22:29.563Z,66.70
2022-11-15T10:24:43.624Z,66.20
2022-11-15T10:26:52.887Z,67.10
2022-11-15T10:29:02.168Z,67.70
2022-11-15T10:31:27.529Z,67.80
2022-11-15T10:33:37.397Z,67.90
2022-11-15T10:35:47.148Z,68.80
2022-11-15T10:37:54.616Z,70.00
2022-11-15T10:40:19.292Z,70.40
2022-11-15T10:42:32.310Z,71.30
2022-11-15T10:44:47.122Z,72.10
2022-11-15T10:47:20.671Z,73.30
2022-11-15T10:49:30.667Z,72.30
2022-11-15T10:51:44.966Z,72.20
2022-11-15T10:53:52.659Z,72.60
2022-11-15T10:56:04.297Z,73.10
2022-11-15T10:58:25.358Z,74.00
2022-11-15T11:00:37.347Z,75.10
2022-11-15T11:02:49.546Z,75.50
2022-11-15T11:04:57.240Z,74.70
2022-11-15T11:07:04.810Z,74.10
2022-11-15T11:09:32.705Z,73.90
2022-11-15T11:11:51.351Z,75.00
2022-11-15T11:13:59.450Z,76.50
2022-11-15T11:16:24.245Z,76.50
2022-11-15T11:18:37.877Z,78.30
2022-11-15T11:20:49.363Z,77.20
2022-11-15T11:23:02.687Z,77.20
2022-11-15T11:25:21.233Z,78.40
2022-11-15T11:27:41.113Z,78.00
2022-11-15T11:30:02.278Z,78.00
2022-11-15T11:32:30.703Z,78.20
2022-11-15T11:34:53.295Z,78.10
2022-11-15T11:37:07.902Z,77.90
2022-11-15T11:39:34.487Z,77.70
2022-11-15T11:42:00.818Z,77.60
2022-11-15T11:44:23.410Z,78.20
2022-11-15T11:46:53.581Z,78.90
2022-11-15T11:49:08.649Z,79.30
2022-11-15T11:51:22.844Z,79.90
2022-11-15T11:53:34.993Z,79.40
2022-11-15T11:55:45.603Z,79.60
2022-11-15T11:58:00.670Z,78.90
2022-11-15T12:00:16.615Z,78.80
2022-11-15T12:02:31.809Z,78.80
2022-11-15T12:04:46.586Z,79.30
2022-11-15T12:06:59.011Z,79.90
2022-11-15T12:09:15.440Z,80.20
2022-11-15T12:11:30.812Z,80.50
2022-11-15T12:13:39.890Z,80.80
2022-11-15T12:15:52.550Z,81.10
2022-11-15T12:18:01.677Z,81.20
2022-11-15T12:20:21.045Z,81.20
2022-11-15T12:22:37.442Z,81.00
2022-11-15T12:24:48.565Z,80.70
2022-11-15T12:27:00.971Z,80.70
2022-11-15T12:29:14.089Z,80.90
2022-11-15T12:31:26.712Z,81.30
2022-11-15T12:33:40.691Z,81.80
2022-11-15T12:36:03.845Z,82.00
2022-11-15T12:38:14.984Z,82.60
2022-11-15T12:40:40.792Z,82.80
2022-11-15T12:43:45.366Z,82.80
2022-11-15T12:45:53.009Z,83.50
2022-11-15T12:48:27.652Z,82.90
2022-11-15T12:51:01.648Z,82.90
2022-11-15T12:53:34.991Z,82.80
2022-11-15T12:55:42.734Z,82.40
2022-11-15T12:57:49.966Z,82.00
2022-11-15T13:00:00.579Z,81.70
2022-11-15T13:02:21.585Z,81.20
2022-11-15T13:04:34.597Z,81.00
2022-11-15T13:06:48.769Z,80.90
2022-11-15T13:08:56.084Z,81.00
2022-11-15T13:11:30.923Z,81.10
2022-11-15T13:13:48.795Z,81.00
2022-11-15T13:16:02.836Z,81.20
2022-11-15T13:18:39.768Z,81.00
2022-11-15T13:20:50.221Z,81.30
2022-11-15T13:23:05.582Z,81.70
2022-11-15T13:25:22.870Z,82.20
2022-11-15T13:27:30.458Z,82.00
2022-11-15T13:29:37.793Z,82.00
2022-11-15T13:31:47.228Z,82.20
2022-11-15T13:33:54.414Z,82.20
2022-11-15T13:36:04.512Z,82.20
2022-11-15T13:38:29.728Z,82.90
2022-11-15T13:40:41.228Z,85.80
2022-11-15T13:42:48.903Z,86.00
2022-11-15T13:45:03.382Z,87.10
2022-11-15T13:47:11.700Z,87.80
2022-11-15T13:49:19.599Z,88.10
2022-11-15T13:51:32.105Z,88.40
2022-11-15T13:53:43.639Z,88.50
2022-11-15T13:55:51.179Z,88.90
2022-11-15T13:58:00.992Z,89.20
2022-11-15T14:00:11.379Z,89.10
2022-11-15T14:02:24.757Z,89.40
2022-11-15T14:04:35.828Z,89.80
2022-11-15T14:06:50.164Z,91.20
2022-11-15T14:09:28.423Z,91.30
2022-11-15T14:11:35.558Z,90.40
2022-11-15T14:13:42.752Z,90.50
2022-11-15T14:15:50.546Z,90.60
2022-11-15T14:17:57.830Z,90.70
2022-11-15T14:20:24.775Z,90.60
2022-11-15T14:22:33.032Z,91.80
2022-11-15T14:24:42.876Z,91.70
2022-11-15T14:26:50.571Z,91.90
2022-11-15T14:28:57.906Z,91.70
2022-11-15T14:31:05.393Z,91.60
2022-11-15T14:33:28.243Z,91.70
2022-11-15T14:35:35.417Z,91.70
2022-11-15T14:37:42.613Z,91.50
2022-11-15T14:39:51.281Z,91.30
2022-11-15T14:41:58.523Z,92.10
2022-11-15T14:44:05.687Z,92.30
2022-11-15T14:46:13.073Z,92.30
2022-11-15T14:48:20.357Z,92.30
2022-11-15T14:50:28.410Z,92.70
2022-11-15T14:52:37.485Z,92.90
2022-11-15T14:54:44.975Z,93.10
2022-11-15T14:56:54.103Z,92.90
2022-11-15T14:59:02.156Z,92.70
2022-11-15T15:01:16.607Z,92.20
2022-11-15T15:03:23.992Z,92.10
2022-11-15T15:05:34.706Z,92.40
2022-11-15T15:07:42.561Z,92.70
2022-11-15T15:09:49.941Z,93.10
2022-11-15T15:12:02.023Z,92.70
2022-11-15T15:14:13.316Z,92.50
2022-11-15T15:16:20.840Z,92.80
2022-11-15T15:18:27.933Z,93.30
2022-11-15T15:20:35.780Z,92.90
2022-11-15T15:22:43.474Z,92.40
2022-11-15T15:24:51.474Z,92.50
2022-11-15T15:27:00.299Z,92.70
2022-11-15T15:29:07.738Z,93.00
2022-11-15T15:31:15.324Z,93.10
2022-11-15T15:33:22.813Z,93.10
2022-11-15T15:35:34.398Z,93.00
2022-11-15T15:37:41.890Z,92.80
2022-11-15T15:39:48.966Z,92.80
2022-11-15T15:41:57.507Z,93.10
2022-11-15T15:44:06.451Z,93.80
2022-11-15T15:46:15.888Z,94.10
2022-11-15T15:48:23.071Z,94.50
2022-11-15T15:50:32.144Z,94.30
2022-11-15T15:52:39.224Z,94.20
2022-11-15T15:54:46.817Z,94.20
2022-11-15T15:56:56.300Z,93.90
2022-11-15T15:59:05.491Z,93.70
2022-11-15T16:01:12.588Z,93.80
2022-11-15T16:03:20.715Z,93.30
2022-11-15T16:05:27.843Z,93.30
2022-11-15T16:07:35.226Z,92.90
2022-11-15T16:09:58.488Z,92.70
2022-11-15T16:12:05.976Z,92.50
2022-11-15T16:14:14.885Z,92.40
2022-11-15T16:16:23.104Z,92.20
2022-11-15T16:18:30.434Z,92.30
2022-11-15T16:20:41.461Z,92.40
2022-11-15T16:22:48.642Z,92.50
2022-11-15T16:24:55.773Z,92.60
2022-11-15T16:27:02.853Z,92.80
2022-11-15T16:29:11.213Z,93.10
2022-11-15T16:31:23.105Z,93.40
2022-11-15T16:33:30.897Z,93.40
2022-11-15T16:35:38.906Z,93.70
2022-11-15T16:37:48.226Z,93.90
2022-11-15T16:40:00.924Z,93.80
2022-11-15T16:42:08.948Z,94.20
2022-11-15T16:44:16.028Z,94.50
2022-11-15T16:46:26.894Z,94.70
2022-11-15T16:48:35.870Z,95.00
2022-11-15T16:50:43.203Z,95.10
2022-11-15T16:52:50.949Z,95.20
2022-11-15T16:54:58.078Z,94.80
2022-11-15T16:57:05.462Z,94.80
2022-11-15T16:59:17.664Z,94.80
2022-11-15T17:01:28.051Z,94.90
2022-11-15T17:03:35.202Z,94.80
2022-11-15T17:05:42.741Z,95.00
2022-11-15T17:07:53.354Z,95.10
2022-11-15T17:10:00.841Z,95.00
2022-11-15T17:12:09.098Z,94.90
2022-11-15T17:14:16.998Z,95.00
2022-11-15T17:16:25.816Z,95.00
2022-11-15T17:18:33.675Z,95.00
2022-11-15T17:20:41.101Z,95.30
2022-11-15T17:22:48.590Z,95.60
2022-11-15T17:24:55.721Z,95.70
2022-11-15T17:27:03.210Z,95.70
2022-11-15T17:29:10.596Z,95.80
2022-11-15T17:31:18.648Z,95.90
2022-11-15T17:33:27.518Z,95.90
2022-11-15T17:35:35.317Z,95.80
2022-11-15T17:37:42.701Z,95.90
2022-11-15T17:39:50.037Z,95.80
2022-11-15T17:41:57.065Z,95.70
2022-11-15T17:44:04.965Z,95.50
2022-11-15T17:46:14.195Z,95.30
2022-11-15T17:48:21.583Z,95.10
2022-11-15T17:50:30.299Z,95.20
2022-11-15T17:52:37.633Z,95.30
2022-11-15T17:54:44.866Z,95.20
2022-11-15T17:56:52.353Z,95.20
2022-11-15T17:59:00.663Z,95.10
2022-11-15T18:01:12.992Z,95.10
2022-11-15T18:03:20.149Z,95.30
2022-11-15T18:05:29.220Z,95.20
2022-11-15T18:07:36.369Z,95.10
2022-11-15T18:09:44.966Z,95.30
2022-11-15T18:11:54.554Z,95.20
2022-11-15T18:14:03.273Z,95.20
2022-11-15T18:16:13.679Z,95.50
2022-11-15T18:18:20.763Z,95.70
2022-11-15T18:20:29.838Z,95.60
2022-11-15T18:22:36.967Z,95.60
2022-11-15T18:24:44.608Z,95.50
2022-11-15T18:26:51.741Z,95.50
2022-11-15T18:29:05.217Z,95.70
2022-11-15T18:31:18.236Z,95.70
2022-11-15T18:33:26.082Z,95.90
2022-11-15T18:35:34.807Z,96.00
2022-11-15T18:37:42.135Z,96.00
2022-11-15T18:39:52.840Z,96.10
2022-11-15T18:42:01.774Z,96.10
2022-11-15T18:44:09.465Z,96.30
2022-11-15T18:46:18.082Z,96.40
2022-11-15T18:48:25.211Z,96.20
2022-11-15T18:50:34.747Z,96.00
2022-11-15T18:52:41.777Z,95.90
2022-11-15T18:54:49.315Z,96.10
2022-11-15T18:56:56.346Z,96.30
2022-11-15T18:59:06.139Z,96.50
2022-11-15T19:01:16.383Z,96.50
2022-11-15T19:03:24.687Z,96.60
2022-11-15T19:05:33.262Z,96.60
2022-11-15T19:07:40.723Z,96.70
2022-11-15T19:09:47.727Z,97.00
2022-11-15T19:11:54.910Z,96.90
2022-11-15T19:14:04.193Z,97.00
2022-11-15T19:16:13.678Z,97.10
2022-11-15T19:18:20.757Z,97.10
2022-11-15T19:20:28.347Z,97.20
2022-11-15T19:22:37.013Z,97.20
2022-11-15T19:24:44.399Z,97.20
2022-11-15T19:26:51.686Z,97.40
2022-11-15T19:28:59.890Z,97.50
2022-11-15T19:31:10.708Z,97.60
2022-11-15T19:33:18.144Z,97.80
2022-11-15T19:35:25.376Z,97.90
2022-11-15T19:37:32.763Z,98.00
2022-11-15T19:39:41.533Z,98.30
2022-11-15T19:41:49.178Z,98.50
2022-11-15T19:43:56.509Z,98.60
2022-11-15T19:46:05.075Z,98.80
2022-11-15T19:48:12.050Z,98.80
2022-11-15T19:50:19.645Z,98.90
2022-11-15T19:52:27.130Z,98.90
2022-11-15T19:54:34.518Z,99.00
2022-11-15T19:56:43.849Z,98.70
2022-11-15T19:58:53.231Z,98.50
2022-11-15T20:01:05.300Z,98.40
2022-11-15T20:03:12.867Z,98.40
2022-11-15T20:05:20.256Z,98.60
2022-11-15T20:07:27.742Z,98.70
2022-11-15T20:09:34.927Z,98.50
2022-11-15T20:11:44.207Z,98.40
2022-11-15T20:13:51.799Z,98.30
2022-11-15T20:15:59.491Z,98.30
2022-11-15T20:18:06.519Z,98.30
2022-11-15T20:20:14.778Z,98.30
2022-11-15T20:22:21.804Z,98.40
2022-11-15T20:24:29.394Z,98.30
2022-11-15T20:26:36.678Z,98.30
2022-11-15T20:28:46.575Z,98.10
2022-11-15T20:30:56.419Z,97.50
2022-11-15T20:33:03.855Z,97.20
2022-11-15T20:35:11.346Z,96.90
2022-11-15T20:37:18.628Z,96.40
2022-11-15T20:39:26.277Z,96.10
2022-11-15T20:41:33.401Z,95.70
2022-11-15T20:43:42.682Z,95.50
2022-11-15T20:45:53.191Z,95.00
2022-11-15T20:48:00.987Z,94.80
2022-11-15T20:50:35.179Z,94.50
2022-11-15T20:52:35.728Z,94.50
2022-11-15T20:54:43.219Z,94.80
2022-11-15T20:56:50.298Z,95.30
2022-11-15T20:58:57.580Z,95.40
2022-11-15T21:01:06.929Z,95.80
2022-11-15T21:03:14.559Z,96.10
2022-11-15T21:05:22.045Z,96.50
2022-11-15T21:07:29.610Z,96.90
2022-11-15T21:09:52.949Z,97.00
2022-11-15T21:12:15.486Z,97.00
2022-11-15T21:14:22.566Z,96.90
2022-11-15T21:16:31.748Z,97.00
2022-11-15T21:18:38.874Z,97.00
2022-11-15T21:20:46.160Z,97.10
2022-11-15T21:22:53.187Z,97.30
2022-11-15T21:25:01.239Z,97.30
2022-11-15T21:27:08.573Z,97.30
2022-11-15T21:29:18.008Z,97.10
2022-11-15T21:31:24.937Z,97.50
2022-11-15T21:33:33.703Z,97.80
2022-11-15T21:35:40.680Z,97.70
2022-11-15T21:37:51.849Z,98.10
2022-11-15T21:40:02.059Z,98.20
2022-11-15T21:42:09.341Z,98.20
2022-11-15T21:44:16.422Z,98.20
2022-11-15T21:46:23.654Z,97.50
2022-11-15T21:48:35.087Z,97.20
2022-11-15T21:50:41.753Z,97.10
2022-11-15T21:52:48.528Z,97.70
2022-11-15T21:54:56.016Z,97.90
2022-11-15T21:57:02.941Z,98.30
2022-11-15T21:59:10.225Z,98.30
2022-11-15T22:01:33.672Z,98.30
2022-11-15T22:03:42.561Z,98.20
2022-11-15T22:05:49.538Z,98.00
2022-11-15T22:07:56.770Z,98.00
2022-11-15T22:10:03.700Z,97.90
2022-11-15T22:12:11.083Z,98.00
2022-11-15T22:14:18.368Z,97.80
2022-11-15T22:16:25.546Z,97.60
2022-11-15T22:18:32.754Z,97.70
2022-11-15T22:20:45.386Z,97.60
2022-11-15T22:22:52.467Z,97.50
2022-11-15T22:24:59.547Z,97.30
2022-11-15T22:27:06.986Z,97.20
2022-11-15T22:29:13.913Z,97.20
2022-11-15T22:31:20.939Z,97.30
2022-11-15T22:33:29.771Z,97.30
2022-11-15T22:35:38.220Z,97.20
2022-11-15T22:37:47.210Z,97.20
2022-11-15T22:39:54.632Z,97.30
2022-11-15T22:42:02.069Z,97.30
2022-11-15T22:44:09.366Z,97.30
2022-11-15T22:46:16.535Z,97.20
2022-11-15T22:48:24.661Z,97.20
2022-11-15T22:50:32.030Z,97.20
2022-11-15T22:52:39.411Z,97.30
2022-11-15T22:54:48.589Z,97.40
2022-11-15T22:56:55.565Z,97.50
2022-11-15T22:59:03.058Z,97.40
2022-11-15T23:01:10.133Z,97.50
2022-11-15T23:03:17.390Z,97.60
2022-11-15T23:05:24.446Z,97.60
2022-11-15T23:07:31.799Z,97.50
2022-11-15T23:09:39.220Z,97.50
2022-11-15T23:12:04.732Z,97.60
2022-11-15T23:14:11.918Z,97.60
2022-11-15T23:16:24.142Z,97.70
2022-11-15T23:18:31.811Z,97.80
2022-11-15T23:20:43.303Z,98.00
2022-11-15T23:22:50.115Z,98.40
2022-11-15T23:24:57.343Z,98.70
2022-11-15T23:27:08.211Z,99.00
2022-11-15T23:29:17.032Z,99.30
2022-11-15T23:31:40.803Z,99.90
2022-11-15T23:34:01.809Z,99.90
2022-11-15T23:36:09.704Z,99.90
2022-11-15T23:38:16.888Z,99.90
2022-11-15T23:40:24.121Z,99.90
2022-11-15T23:42:33.145Z,99.90
2022-11-15T23:44:40.430Z,99.90
2022-11-15T23:46:47.968Z,99.90
2022-11-15T23:48:55.150Z,99.90
2022-11-15T23:51:02.281Z,99.90
2022-11-15T23:53:09.755Z,99.90
2022-11-15T23:55:17.209Z,99.90
2022-11-15T23:57:24.339Z,99.90
2022-11-15T23:59:33.159Z,99.90
